createdAt,value
2019-02-26T00:00:26.174Z,100513.53
2019-02-26T00:00:58.674Z,100520.41
2019-02-26T00:01:30.847Z,100514.45
2019-02-26T00:02:02.716Z,100513.75
2019-02-26T00:02:34.075Z,100513.75
2019-02-26T00:03:05.299Z,100508.67
2019-02-26T00:03:36.515Z,100506.75
2019-02-26T00:04:07.724Z,100510.20
2019-02-26T00:04:39.055Z,100490.48
2019-02-26T00:05:10.275Z,100499.05
2019-02-26T00:05:41.486Z,100498.64
2019-02-26T00:06:12.738Z,100501.30
2019-02-26T00:06:47.128Z,100486.77
2019-02-26T00:07:18.846Z,100490.75
2019-02-26T00:07:51.558Z,100495.91
2019-02-26T00:08:24.608Z,100496.88
2019-02-26T00:08:58.224Z,100487.66
2019-02-26T00:09:30.490Z,100486.84
2019-02-26T00:10:04.421Z,100493.66
2019-02-26T00:10:37.132Z,100495.38
2019-02-26T00:11:08.507Z,100494.94
2019-02-26T00:11:40.473Z,100494.55
2019-02-26T00:12:11.667Z,100495.86
2019-02-26T00:12:42.969Z,100489.87
2019-02-26T00:13:14.173Z,100495.95
2019-02-26T00:13:45.388Z,100489.14
2019-02-26T00:14:17.849Z,100479.81
2019-02-26T00:14:50.179Z,100488.59
2019-02-26T00:15:22.660Z,100483.94
2019-02-26T00:15:53.887Z,100489.14
2019-02-26T00:16:25.146Z,100481.83
2019-02-26T00:16:56.349Z,100488.63
2019-02-26T00:17:27.558Z,100488.59
2019-02-26T00:17:58.827Z,100483.86
2019-02-26T00:18:30.033Z,100480.86
2019-02-26T00:19:04.622Z,100476.57
2019-02-26T00:19:34.238Z,100488.11
2019-02-26T00:20:05.796Z,100480.06
2019-02-26T00:20:39.642Z,100475.34
2019-02-26T00:21:11.336Z,100480.97
2019-02-26T00:21:43.119Z,100477.05
2019-02-26T00:22:15.895Z,100472.72
2019-02-26T00:22:48.408Z,100478.31
2019-02-26T00:23:21.486Z,100464.59
2019-02-26T00:23:53.145Z,100475.29
2019-02-26T00:24:24.442Z,100471.84
2019-02-26T00:24:55.641Z,100467.55
2019-02-26T00:25:26.869Z,100468.84
2019-02-26T00:25:58.076Z,100467.16
2019-02-26T00:26:29.287Z,100467.58
2019-02-26T00:27:01.465Z,100455.51
2019-02-26T00:27:35.147Z,100468.81
2019-02-26T00:28:06.477Z,100460.25
2019-02-26T00:28:39.091Z,100458.53
2019-02-26T00:29:10.623Z,100467.53
2019-02-26T00:29:41.812Z,100467.09
2019-02-26T00:30:14.325Z,100466.67
2019-02-26T00:30:45.979Z,100465.01
2019-02-26T00:31:19.135Z,100469.73
2019-02-26T00:31:50.777Z,100469.73
2019-02-26T00:32:23.193Z,100467.16
2019-02-26T00:32:55.436Z,100467.16
2019-02-26T00:33:28.953Z,100471.38
2019-02-26T00:34:00.295Z,100476.55
2019-02-26T00:34:32.345Z,100472.34
2019-02-26T00:35:04.422Z,100474.09
2019-02-26T00:35:35.646Z,100472.80
2019-02-26T00:36:08.924Z,100466.29
2019-02-26T00:36:39.832Z,100477.48
2019-02-26T00:37:11.073Z,100472.72
2019-02-26T00:37:44.050Z,100472.34
2019-02-26T00:38:16.038Z,100465.44
2019-02-26T00:38:48.155Z,100470.15
2019-02-26T00:39:20.612Z,100468.86
2019-02-26T00:39:54.176Z,100469.30
2019-02-26T00:40:25.354Z,100467.98
2019-02-26T00:40:57.814Z,100465.44
2019-02-26T00:41:31.265Z,100459.47
2019-02-26T00:42:03.219Z,100467.34
2019-02-26T00:42:36.038Z,100459.67
2019-02-26T00:43:07.477Z,100451.55
2019-02-26T00:43:38.683Z,100457.06
2019-02-26T00:44:09.886Z,100460.45
2019-02-26T00:44:41.147Z,100457.86
2019-02-26T00:45:12.329Z,100459.58
2019-02-26T00:45:43.587Z,100452.64
2019-02-26T00:46:14.793Z,100450.87
2019-02-26T00:46:45.997Z,100458.20
2019-02-26T00:47:17.192Z,100456.47
2019-02-26T00:47:48.411Z,100461.63
2019-02-26T00:48:19.612Z,100453.44
2019-02-26T00:48:50.835Z,100450.37
2019-02-26T00:49:23.704Z,100455.13
2019-02-26T00:49:55.053Z,100444.85
2019-02-26T00:50:27.991Z,100448.68
2019-02-26T00:51:01.048Z,100447.34
2019-02-26T00:51:32.162Z,100446.46
2019-02-26T00:52:04.016Z,100439.98
2019-02-26T00:52:37.452Z,100442.52
2019-02-26T00:53:09.320Z,100441.61
2019-02-26T00:53:40.538Z,100441.56
2019-02-26T00:54:11.741Z,100439.45
2019-02-26T00:54:43.025Z,100436.87
2019-02-26T00:55:14.249Z,100438.61
2019-02-26T00:55:45.456Z,100430.00
2019-02-26T00:56:16.666Z,100432.56
2019-02-26T00:56:47.863Z,100436.44
2019-02-26T00:57:19.083Z,100430.02
2019-02-26T00:57:50.299Z,100430.91
2019-02-26T00:58:21.547Z,100424.51
2019-02-26T00:58:52.773Z,100429.67
2019-02-26T00:59:23.989Z,100417.66
2019-02-26T00:59:55.206Z,100420.68
2019-02-26T01:00:28.424Z,100424.98
2019-02-26T01:00:59.415Z,100416.83
2019-02-26T01:01:30.624Z,100412.16
2019-02-26T01:02:01.843Z,100411.77
2019-02-26T01:02:33.054Z,100410.51
2019-02-26T01:03:05.965Z,100414.39
2019-02-26T01:03:37.251Z,100410.53
2019-02-26T01:04:08.475Z,100411.47
2019-02-26T01:04:41.455Z,100408.47
2019-02-26T01:05:13.146Z,100412.78
2019-02-26T01:05:45.618Z,100408.09
2019-02-26T01:06:16.822Z,100408.09
2019-02-26T01:06:48.035Z,100403.80
2019-02-26T01:07:21.219Z,100401.19
2019-02-26T01:07:54.236Z,100398.61
2019-02-26T01:08:25.127Z,100394.73
2019-02-26T01:08:56.374Z,100393.00
2019-02-26T01:09:29.364Z,100393.45
2019-02-26T01:10:00.515Z,100393.05
2019-02-26T01:10:31.778Z,100379.77
2019-02-26T01:11:03.933Z,100385.79
2019-02-26T01:11:35.906Z,100382.37
2019-02-26T01:12:09.008Z,100382.37
2019-02-26T01:12:40.971Z,100380.63
2019-02-26T01:13:12.964Z,100379.72
2019-02-26T01:13:44.208Z,100380.60
2019-02-26T01:14:15.869Z,100379.31
2019-02-26T01:14:50.418Z,100371.16
2019-02-26T01:15:21.622Z,100370.30
2019-02-26T01:15:52.838Z,100369.03
2019-02-26T01:16:24.042Z,100373.34
2019-02-26T01:16:55.264Z,100368.21
2019-02-26T01:17:26.477Z,100366.03
2019-02-26T01:17:58.926Z,100366.49
2019-02-26T01:18:30.622Z,100358.80
2019-02-26T01:19:04.634Z,100362.26
2019-02-26T01:19:36.940Z,100360.55
2019-02-26T01:20:08.816Z,100361.00
2019-02-26T01:20:40.055Z,100360.11
2019-02-26T01:21:11.277Z,100363.22
2019-02-26T01:21:42.477Z,100363.23
2019-02-26T01:22:13.731Z,100361.95
2019-02-26T01:22:45.565Z,100366.30
2019-02-26T01:23:21.061Z,100360.81
2019-02-26T01:23:49.829Z,100355.75
2019-02-26T01:24:21.843Z,100354.05
2019-02-26T01:24:54.278Z,100345.11
2019-02-26T01:25:26.888Z,100348.03
2019-02-26T01:25:58.092Z,100343.74
2019-02-26T01:26:29.296Z,100340.27
2019-02-26T01:27:00.491Z,100336.39
2019-02-26T01:27:31.753Z,100330.85
2019-02-26T01:28:02.981Z,100331.34
2019-02-26T01:28:34.182Z,100333.14
2019-02-26T01:29:05.542Z,100335.02
2019-02-26T01:29:36.739Z,100329.05
2019-02-26T01:30:07.939Z,100327.88
2019-02-26T01:30:39.179Z,100339.63
2019-02-26T01:31:10.396Z,100332.37
2019-02-26T01:31:41.689Z,100329.34
2019-02-26T01:32:13.802Z,100328.39
2019-02-26T01:32:45.855Z,100325.83
2019-02-26T01:33:17.069Z,100326.20
2019-02-26T01:33:49.079Z,100326.13
2019-02-26T01:34:21.250Z,100327.40
2019-02-26T01:34:52.454Z,100323.07
2019-02-26T01:35:23.680Z,100323.90
2019-02-26T01:35:55.491Z,100326.00
2019-02-26T01:36:27.871Z,100321.22
2019-02-26T01:37:00.829Z,100319.51
2019-02-26T01:37:34.289Z,100322.50
2019-02-26T01:38:05.137Z,100322.95
2019-02-26T01:38:39.508Z,100320.34
2019-02-26T01:39:11.499Z,100328.44
2019-02-26T01:39:43.017Z,100320.25
2019-02-26T01:40:18.419Z,100317.68
2019-02-26T01:40:51.093Z,100320.72
2019-02-26T01:41:23.249Z,100320.72
2019-02-26T01:41:56.256Z,100315.13
2019-02-26T01:42:27.674Z,100317.70
2019-02-26T01:43:02.589Z,100321.97
2019-02-26T01:43:32.955Z,100320.23
2019-02-26T01:44:04.181Z,100326.67
2019-02-26T01:44:37.369Z,100330.10
2019-02-26T01:45:08.335Z,100325.39
2019-02-26T01:45:39.583Z,100330.10
2019-02-26T01:46:11.698Z,100325.77
2019-02-26T01:46:43.748Z,100325.75
2019-02-26T01:47:17.062Z,100333.01
2019-02-26T01:47:50.016Z,100329.97
2019-02-26T01:48:20.848Z,100324.82
2019-02-26T01:48:52.963Z,100323.56
2019-02-26T01:49:26.609Z,100327.11
2019-02-26T01:49:59.379Z,100321.67
2019-02-26T01:50:33.239Z,100325.66
2019-02-26T01:51:03.776Z,100327.53
2019-02-26T01:51:34.972Z,100320.83
2019-02-26T01:52:07.985Z,100322.08
2019-02-26T01:52:39.104Z,100329.45
2019-02-26T01:53:12.003Z,100209.72
2019-02-26T01:53:46.419Z,100324.42
2019-02-26T01:54:16.784Z,100328.72
2019-02-26T01:54:48.119Z,100324.79
2019-02-26T01:55:20.762Z,100326.50
2019-02-26T01:55:52.287Z,100320.45
2019-02-26T01:56:23.485Z,100316.02
2019-02-26T01:56:54.701Z,100318.40
2019-02-26T01:57:27.698Z,100315.34
2019-02-26T01:57:59.318Z,100311.33
2019-02-26T01:58:33.446Z,100314.67
2019-02-26T01:59:03.609Z,100315.84
2019-02-26T01:59:36.119Z,100310.66
2019-02-26T02:00:07.320Z,100301.66
2019-02-26T02:00:38.676Z,100306.31
2019-02-26T02:01:14.036Z,100306.20
2019-02-26T02:01:46.469Z,100303.11
2019-02-26T02:02:20.087Z,100301.44
2019-02-26T02:02:50.237Z,100294.97
2019-02-26T02:03:23.020Z,100300.06
2019-02-26T02:03:56.212Z,100298.36
2019-02-26T02:04:27.380Z,100290.59
2019-02-26T02:04:59.771Z,100294.86
2019-02-26T02:05:31.571Z,100291.00
2019-02-26T02:06:02.804Z,100294.39
2019-02-26T02:06:34.926Z,100288.79
2019-02-26T02:07:06.996Z,100293.05
2019-02-26T02:07:38.194Z,100281.08
2019-02-26T02:08:13.063Z,100287.08
2019-02-26T02:08:45.880Z,100284.87
2019-02-26T02:09:18.690Z,100284.86
2019-02-26T02:09:51.352Z,100283.58
2019-02-26T02:10:22.859Z,100283.22
2019-02-26T02:10:56.533Z,100284.58
2019-02-26T02:11:30.576Z,100285.07
2019-02-26T02:12:02.039Z,100284.63
2019-02-26T02:12:34.397Z,100283.59
2019-02-26T02:13:07.154Z,100282.14
2019-02-26T02:13:41.262Z,100283.53
2019-02-26T02:14:12.752Z,100283.49
2019-02-26T02:14:44.729Z,100281.77
2019-02-26T02:15:18.830Z,100280.63
2019-02-26T02:15:48.904Z,100274.66
2019-02-26T02:16:19.935Z,100278.03
2019-02-26T02:16:51.139Z,100269.00
2019-02-26T02:17:22.348Z,100271.85
2019-02-26T02:17:56.643Z,100270.44
2019-02-26T02:18:28.121Z,100266.95
2019-02-26T02:19:00.043Z,100262.19
2019-02-26T02:19:32.630Z,100260.53
2019-02-26T02:20:07.708Z,100260.16
2019-02-26T02:20:36.830Z,100260.16
2019-02-26T02:21:08.038Z,100255.29
2019-02-26T02:21:39.249Z,100250.94
2019-02-26T02:22:12.200Z,100253.42
2019-02-26T02:22:44.413Z,100250.40
2019-02-26T02:23:15.891Z,100246.51
2019-02-26T02:23:49.211Z,100245.26
2019-02-26T02:24:22.272Z,100239.80
2019-02-26T02:24:53.975Z,100244.15
2019-02-26T02:25:29.041Z,100242.45
2019-02-26T02:26:02.143Z,100234.13
2019-02-26T02:26:31.860Z,100233.72
2019-02-26T02:27:03.068Z,100240.19
2019-02-26T02:27:34.310Z,100236.30
2019-02-26T02:28:05.500Z,100231.90
2019-02-26T02:28:36.705Z,100237.14
2019-02-26T02:29:07.921Z,100227.88
2019-02-26T02:29:41.837Z,100231.99
2019-02-26T02:30:18.517Z,100229.52
2019-02-26T02:30:45.029Z,100236.55
2019-02-26T02:31:16.302Z,100242.30
2019-02-26T02:31:47.504Z,100234.30
2019-02-26T02:32:20.972Z,100237.74
2019-02-26T02:32:56.364Z,100234.32
2019-02-26T02:33:26.762Z,100225.28
2019-02-26T02:33:57.580Z,100236.70
2019-02-26T02:34:29.591Z,100231.86
2019-02-26T02:35:04.329Z,100231.63
2019-02-26T02:35:34.714Z,100234.30
2019-02-26T02:36:05.944Z,100229.00
2019-02-26T02:36:37.155Z,100231.48
2019-02-26T02:37:08.400Z,100233.43
2019-02-26T02:37:39.603Z,100235.67
2019-02-26T02:38:10.883Z,100234.88
2019-02-26T02:38:42.117Z,100233.52
2019-02-26T02:39:15.740Z,100228.33
2019-02-26T02:39:46.292Z,100230.25
2019-02-26T02:40:17.494Z,100224.02
2019-02-26T02:40:51.188Z,100225.84
2019-02-26T02:41:21.660Z,100230.01
2019-02-26T02:41:54.914Z,100229.94
2019-02-26T02:42:25.856Z,100224.98
2019-02-26T02:42:57.080Z,100216.20
2019-02-26T02:43:28.293Z,100233.72
2019-02-26T02:43:59.576Z,100237.46
2019-02-26T02:44:30.754Z,100231.80
2019-02-26T02:45:01.970Z,100240.77
2019-02-26T02:45:33.179Z,100235.50
2019-02-26T02:46:04.395Z,100240.52
2019-02-26T02:46:36.689Z,100234.38
2019-02-26T02:47:09.337Z,100239.82
2019-02-26T02:47:41.503Z,100239.16
2019-02-26T02:48:14.194Z,100243.45
2019-02-26T02:48:45.566Z,100241.39
2019-02-26T02:49:17.966Z,100231.70
2019-02-26T02:49:49.249Z,100223.61
2019-02-26T02:50:20.465Z,100228.31
2019-02-26T02:50:51.690Z,100226.90
2019-02-26T02:51:22.915Z,100240.91
2019-02-26T02:51:54.165Z,100232.98
2019-02-26T02:52:27.065Z,100231.19
2019-02-26T02:52:59.654Z,100230.26
2019-02-26T02:53:32.341Z,100229.19
2019-02-26T02:54:03.667Z,100220.22
2019-02-26T02:54:34.892Z,100224.08
2019-02-26T02:55:06.875Z,100230.84
2019-02-26T02:55:44.261Z,100218.36
2019-02-26T02:56:15.343Z,100218.34
2019-02-26T02:56:47.194Z,100226.75
2019-02-26T02:57:18.586Z,100225.07
2019-02-26T02:57:52.658Z,100223.76
2019-02-26T02:58:23.927Z,100223.12
2019-02-26T02:58:55.657Z,100231.36
2019-02-26T02:59:28.319Z,100223.37
2019-02-26T03:00:02.629Z,100224.65
2019-02-26T03:00:34.455Z,100221.16
2019-02-26T03:01:05.788Z,100225.94
2019-02-26T03:01:37.003Z,100219.30
2019-02-26T03:02:09.408Z,100224.98
2019-02-26T03:02:43.183Z,100219.17
2019-02-26T03:03:14.172Z,100221.56
2019-02-26T03:03:47.633Z,100230.89
2019-02-26T03:04:19.781Z,100224.17
2019-02-26T03:04:51.232Z,100236.64
2019-02-26T03:05:22.442Z,100227.05
2019-02-26T03:05:53.656Z,100223.42
2019-02-26T03:06:27.310Z,100227.09
2019-02-26T03:06:58.780Z,100228.80
2019-02-26T03:07:30.786Z,100224.77
2019-02-26T03:08:01.983Z,100232.88
2019-02-26T03:08:33.181Z,100234.97
2019-02-26T03:09:04.404Z,100230.14
2019-02-26T03:09:37.723Z,100230.83
2019-02-26T03:10:09.642Z,100242.70
2019-02-26T03:10:43.095Z,100233.59
2019-02-26T03:11:14.427Z,100236.01
2019-02-26T03:11:46.467Z,100244.14
2019-02-26T03:12:18.595Z,100234.36
2019-02-26T03:12:53.790Z,100231.81
2019-02-26T03:13:24.913Z,100235.06
2019-02-26T03:13:55.762Z,100224.08
2019-02-26T03:14:26.959Z,100223.30
2019-02-26T03:14:59.861Z,100218.14
2019-02-26T03:15:33.623Z,100225.88
2019-02-26T03:16:04.075Z,100224.45
2019-02-26T03:16:35.501Z,100228.27
2019-02-26T03:17:09.081Z,100224.78
2019-02-26T03:17:39.675Z,100222.91
2019-02-26T03:18:12.523Z,100219.53
2019-02-26T03:18:43.840Z,100220.47
2019-02-26T03:19:16.931Z,100218.02
2019-02-26T03:19:47.980Z,100215.06
2019-02-26T03:20:19.180Z,100214.75
2019-02-26T03:20:51.433Z,100218.37
2019-02-26T03:21:24.764Z,100215.80
2019-02-26T03:21:56.262Z,100216.59
2019-02-26T03:22:27.536Z,100215.77
2019-02-26T03:22:58.787Z,100207.16
2019-02-26T03:23:31.308Z,100215.33
2019-02-26T03:24:05.630Z,100210.90
2019-02-26T03:24:35.996Z,100204.92
2019-02-26T03:25:07.140Z,100202.09
2019-02-26T03:25:38.356Z,100213.84
2019-02-26T03:26:12.562Z,100211.20
2019-02-26T03:26:42.503Z,100205.23
2019-02-26T03:27:13.714Z,100210.84
2019-02-26T03:27:44.953Z,100207.35
2019-02-26T03:28:16.162Z,100212.81
2019-02-26T03:28:48.150Z,100210.41
2019-02-26T03:29:20.306Z,100212.56
2019-02-26T03:29:52.541Z,100208.65
2019-02-26T03:30:31.973Z,100200.41
2019-02-26T03:30:57.464Z,100209.37
2019-02-26T03:31:31.040Z,100202.83
2019-02-26T03:32:01.615Z,100203.77
2019-02-26T03:32:36.075Z,100203.09
2019-02-26T03:33:05.751Z,100200.53
2019-02-26T03:33:36.940Z,100207.42
2019-02-26T03:34:10.597Z,100195.34
2019-02-26T03:34:41.149Z,100207.14
2019-02-26T03:35:13.224Z,100198.95
2019-02-26T03:35:45.336Z,100198.19
2019-02-26T03:36:17.183Z,100198.30
2019-02-26T03:36:49.470Z,100185.56
2019-02-26T03:37:20.688Z,100191.30
2019-02-26T03:37:54.875Z,100194.66
2019-02-26T03:38:26.965Z,100196.56
2019-02-26T03:39:00.708Z,100190.10
2019-02-26T03:39:30.710Z,100192.22
2019-02-26T03:40:03.654Z,100192.08
2019-02-26T03:40:36.149Z,100200.52
2019-02-26T03:41:07.564Z,100197.48
2019-02-26T03:41:38.805Z,100204.83
2019-02-26T03:42:10.579Z,100203.28
2019-02-26T03:42:43.465Z,100196.06
2019-02-26T03:43:16.289Z,100192.77
2019-02-26T03:43:47.652Z,100184.11
2019-02-26T03:44:18.875Z,100192.09
2019-02-26T03:44:50.127Z,100187.23
2019-02-26T03:45:24.683Z,100192.81
2019-02-26T03:45:54.312Z,100194.17
2019-02-26T03:46:25.527Z,100196.18
2019-02-26T03:46:56.752Z,100198.95
2019-02-26T03:47:27.954Z,100197.50
2019-02-26T03:47:59.215Z,100198.27
2019-02-26T03:48:30.424Z,100201.16
2019-02-26T03:49:02.727Z,100201.43
2019-02-26T03:49:34.590Z,100206.05
2019-02-26T03:50:08.528Z,100202.95
2019-02-26T03:50:38.736Z,100208.03
2019-02-26T03:51:10.006Z,100205.84
2019-02-26T03:51:41.210Z,100208.97
2019-02-26T03:52:15.316Z,100059.28
2019-02-26T03:52:45.372Z,100210.70
2019-02-26T03:53:16.752Z,100201.23
2019-02-26T03:53:47.954Z,100203.06
2019-02-26T03:54:19.161Z,100208.66
2019-02-26T03:54:50.762Z,100204.04
2019-02-26T03:55:22.064Z,100198.02
2019-02-26T03:55:53.263Z,100194.63
2019-02-26T03:56:24.474Z,100198.27
2019-02-26T03:56:55.679Z,100192.34
2019-02-26T03:57:26.882Z,100187.77
2019-02-26T03:58:01.426Z,100192.27
2019-02-26T03:58:31.071Z,100193.11
2019-02-26T03:59:05.756Z,100188.69
2019-02-26T03:59:35.218Z,100185.74
2019-02-26T04:00:08.779Z,100183.94
2019-02-26T04:00:41.714Z,100186.39
2019-02-26T04:01:13.653Z,100186.84
2019-02-26T04:01:45.277Z,100185.11
2019-02-26T04:02:18.110Z,100188.38
2019-02-26T04:02:51.813Z,100192.10
2019-02-26T04:03:22.356Z,100186.95
2019-02-26T04:03:54.655Z,100185.64
2019-02-26T04:04:30.448Z,100189.32
2019-02-26T04:05:02.242Z,100189.27
2019-02-26T04:05:32.392Z,100184.00
2019-02-26T04:06:06.685Z,100183.44
2019-02-26T04:06:38.431Z,100187.16
2019-02-26T04:07:10.661Z,100183.52
2019-02-26T04:07:41.936Z,100188.28
2019-02-26T04:08:13.269Z,100192.42
2019-02-26T04:08:46.029Z,100188.08
2019-02-26T04:09:19.607Z,100188.78
2019-02-26T04:09:53.122Z,100190.80
2019-02-26T04:10:23.364Z,100188.95
2019-02-26T04:10:55.958Z,100184.62
2019-02-26T04:11:27.850Z,100188.45
2019-02-26T04:11:59.090Z,100183.71
2019-02-26T04:12:30.316Z,100182.84
2019-02-26T04:13:01.557Z,100183.66
2019-02-26T04:13:32.807Z,100187.88
2019-02-26T04:14:04.032Z,100185.64
2019-02-26T04:14:35.275Z,100185.64
2019-02-26T04:15:06.459Z,100184.81
2019-02-26T04:15:38.779Z,100195.91
2019-02-26T04:16:09.962Z,100192.08
2019-02-26T04:16:43.613Z,100189.27
2019-02-26T04:17:14.125Z,100187.23
2019-02-26T04:17:45.340Z,100186.34
2019-02-26T04:18:18.467Z,100185.81
2019-02-26T04:18:51.959Z,100182.30
2019-02-26T04:19:26.138Z,100180.41
2019-02-26T04:19:55.587Z,100179.47
2019-02-26T04:20:27.866Z,100175.19
2019-02-26T04:21:03.208Z,100181.55
2019-02-26T04:21:32.175Z,100177.75
2019-02-26T04:22:03.380Z,100176.47
2019-02-26T04:22:34.630Z,100176.34
2019-02-26T04:23:05.824Z,100179.31
2019-02-26T04:23:38.943Z,100173.64
2019-02-26T04:24:11.425Z,100177.77
2019-02-26T04:24:42.705Z,100177.70
2019-02-26T04:25:13.915Z,100172.17
2019-02-26T04:25:45.144Z,100174.20
2019-02-26T04:26:20.872Z,100178.45
2019-02-26T04:26:49.268Z,100173.19
2019-02-26T04:27:20.498Z,100173.55
2019-02-26T04:27:51.710Z,100170.11
2019-02-26T04:28:27.365Z,100167.95
2019-02-26T04:28:57.309Z,100171.39
2019-02-26T04:29:28.759Z,100174.47
2019-02-26T04:29:59.989Z,100174.03
2019-02-26T04:30:36.608Z,100175.43
2019-02-26T04:31:04.177Z,100171.63
2019-02-26T04:31:35.387Z,100171.63
2019-02-26T04:32:06.629Z,100174.26
2019-02-26T04:32:40.750Z,100174.26
2019-02-26T04:33:11.650Z,100172.98
2019-02-26T04:33:43.713Z,100175.00
2019-02-26T04:34:14.967Z,100180.50
2019-02-26T04:34:46.206Z,100167.23
2019-02-26T04:35:17.411Z,100174.47
2019-02-26T04:35:50.128Z,100170.62
2019-02-26T04:36:22.373Z,100168.42
2019-02-26T04:36:53.739Z,100172.67
2019-02-26T04:37:27.263Z,100171.42
2019-02-26T04:37:59.061Z,100166.27
2019-02-26T04:38:31.143Z,100169.17
2019-02-26T04:39:02.577Z,100171.25
2019-02-26T04:39:34.436Z,100168.28
2019-02-26T04:40:10.180Z,100172.95
2019-02-26T04:40:40.953Z,100166.13
2019-02-26T04:41:15.719Z,100169.91
2019-02-26T04:41:45.223Z,100167.78
2019-02-26T04:42:18.188Z,100164.84
2019-02-26T04:42:49.452Z,100162.77
2019-02-26T04:43:20.665Z,100170.05
2019-02-26T04:43:54.562Z,100171.81
2019-02-26T04:44:26.868Z,100161.08
2019-02-26T04:45:00.519Z,100168.52
2019-02-26T04:45:30.710Z,100164.69
2019-02-26T04:46:04.947Z,100163.84
2019-02-26T04:46:36.903Z,100170.76
2019-02-26T04:47:07.840Z,100176.84
2019-02-26T04:47:40.748Z,100159.48
2019-02-26T04:48:14.709Z,100170.81
2019-02-26T04:48:44.917Z,100169.73
2019-02-26T04:49:16.158Z,100163.23
2019-02-26T04:49:47.470Z,100168.25
2019-02-26T04:50:22.987Z,100166.47
2019-02-26T04:50:51.641Z,100157.44
2019-02-26T04:51:22.863Z,100168.58
2019-02-26T04:51:54.076Z,100169.48
2019-02-26T04:52:25.294Z,100170.66
2019-02-26T04:52:59.741Z,100173.66
2019-02-26T04:53:31.312Z,100169.81
2019-02-26T04:54:02.402Z,100173.23
2019-02-26T04:54:35.927Z,100179.62
2019-02-26T04:55:06.539Z,100172.27
2019-02-26T04:55:41.384Z,100176.59
2019-02-26T04:56:12.796Z,100172.75
2019-02-26T04:56:45.108Z,100176.73
2019-02-26T04:57:16.707Z,100170.29
2019-02-26T04:57:50.607Z,100171.16
2019-02-26T04:58:22.684Z,100174.87
2019-02-26T04:58:54.000Z,100182.08
2019-02-26T04:59:25.335Z,100181.30
2019-02-26T04:59:59.163Z,100179.13
2019-02-26T05:00:32.186Z,100179.95
2019-02-26T05:01:04.231Z,100179.01
2019-02-26T05:01:35.394Z,100178.63
2019-02-26T05:02:06.593Z,100178.34
2019-02-26T05:02:37.851Z,100177.06
2019-02-26T05:03:11.819Z,100174.59
2019-02-26T05:03:41.992Z,100172.97
2019-02-26T05:04:13.206Z,100177.13
2019-02-26T05:04:44.437Z,100180.08
2019-02-26T05:05:15.663Z,100177.62
2019-02-26T05:05:51.404Z,100176.95
2019-02-26T05:06:19.802Z,100173.89
2019-02-26T05:06:51.038Z,100178.42
2019-02-26T05:07:22.245Z,100177.96
2019-02-26T05:07:53.500Z,100169.69
2019-02-26T05:08:24.740Z,100166.37
2019-02-26T05:08:59.330Z,100170.52
2019-02-26T05:09:30.598Z,100172.19
2019-02-26T05:10:02.315Z,100172.49
2019-02-26T05:10:35.760Z,100163.77
2019-02-26T05:11:06.994Z,100163.20
2019-02-26T05:11:40.655Z,100172.50
2019-02-26T05:12:11.141Z,100167.72
2019-02-26T05:12:42.337Z,100170.19
2019-02-26T05:13:13.576Z,100165.43
2019-02-26T05:13:44.804Z,100171.34
2019-02-26T05:14:21.006Z,100167.48
2019-02-26T05:14:48.958Z,100170.52
2019-02-26T05:15:22.663Z,100165.81
2019-02-26T05:15:53.185Z,100158.59
2019-02-26T05:16:28.538Z,100160.35
2019-02-26T05:16:57.323Z,100155.77
2019-02-26T05:17:30.787Z,100156.38
2019-02-26T05:18:01.453Z,100154.00
2019-02-26T05:18:34.517Z,100150.39
2019-02-26T05:19:05.644Z,100148.44
2019-02-26T05:19:39.249Z,100151.59
2019-02-26T05:20:12.857Z,100146.09
2019-02-26T05:20:47.220Z,100148.88
2019-02-26T05:21:15.699Z,100152.05
2019-02-26T05:21:46.887Z,100146.20
2019-02-26T05:22:19.828Z,100143.09
2019-02-26T05:22:52.058Z,100145.86
2019-02-26T05:23:25.905Z,100144.22
2019-02-26T05:23:57.671Z,100141.75
2019-02-26T05:24:29.840Z,100139.69
2019-02-26T05:25:01.057Z,100143.90
2019-02-26T05:25:34.394Z,100137.84
2019-02-26T05:26:08.097Z,100149.88
2019-02-26T05:26:38.230Z,100147.76
2019-02-26T05:27:11.831Z,100138.31
2019-02-26T05:27:45.226Z,100151.42
2019-02-26T05:28:17.488Z,100147.32
2019-02-26T05:28:49.721Z,100146.09
2019-02-26T05:29:21.255Z,100150.30
2019-02-26T05:29:54.754Z,100148.78
2019-02-26T05:30:25.383Z,100147.84
2019-02-26T05:30:56.618Z,100142.59
2019-02-26T05:31:29.618Z,100145.08
2019-02-26T05:32:03.597Z,100147.62
2019-02-26T05:32:35.517Z,100141.91
2019-02-26T05:33:06.702Z,100145.77
2019-02-26T05:33:37.967Z,100143.96
2019-02-26T05:34:09.187Z,100141.29
2019-02-26T05:34:42.785Z,100145.01
2019-02-26T05:35:14.494Z,100139.40
2019-02-26T05:35:48.863Z,100135.58
2019-02-26T05:36:19.267Z,100142.08
2019-02-26T05:36:50.482Z,100141.73
2019-02-26T05:37:21.723Z,100135.80
2019-02-26T05:37:55.497Z,100130.26
2019-02-26T05:38:26.571Z,100133.30
2019-02-26T05:39:00.347Z,100139.73
2019-02-26T05:39:31.898Z,100132.48
2019-02-26T05:40:03.108Z,100134.61
2019-02-26T05:40:37.484Z,100130.73
2019-02-26T05:41:07.289Z,100127.30
2019-02-26T05:41:40.362Z,100131.26
2019-02-26T05:42:11.417Z,100139.37
2019-02-26T05:42:42.679Z,100132.92
2019-02-26T05:43:13.912Z,100131.20
2019-02-26T05:43:49.450Z,100132.14
2019-02-26T05:44:18.088Z,100138.98
2019-02-26T05:44:53.763Z,100132.14
2019-02-26T05:45:23.829Z,100128.75
2019-02-26T05:45:58.106Z,100134.52
2019-02-26T05:46:29.510Z,100132.48
2019-02-26T05:47:01.714Z,100130.78
2019-02-26T05:47:33.030Z,100131.23
2019-02-26T05:48:04.271Z,100122.58
2019-02-26T05:48:37.233Z,100131.09
2019-02-26T05:49:12.526Z,100123.28
2019-02-26T05:49:43.399Z,100130.47
2019-02-26T05:50:16.750Z,100133.49
2019-02-26T05:50:47.367Z,100125.70
2019-02-26T05:51:18.636Z,100127.00
2019-02-26T05:51:49.847Z,100129.11
2019-02-26T05:52:21.925Z,100127.70
2019-02-26T05:52:58.020Z,100124.23
2019-02-26T05:53:27.035Z,100128.16
2019-02-26T05:54:01.768Z,100118.35
2019-02-26T05:54:31.202Z,100118.97
2019-02-26T05:55:02.399Z,100125.14
2019-02-26T05:55:33.616Z,100123.77
2019-02-26T05:56:04.820Z,100119.84
2019-02-26T05:56:37.222Z,100129.20
2019-02-26T05:57:15.310Z,100129.19
2019-02-26T05:57:42.088Z,100122.22
2019-02-26T05:58:15.815Z,100124.24
2019-02-26T05:58:46.989Z,100122.40
2019-02-26T05:59:21.308Z,100100.42
2019-02-26T05:59:51.317Z,100122.49
2019-02-26T06:00:25.533Z,100121.11
2019-02-26T06:00:55.495Z,100117.70
2019-02-26T06:01:27.818Z,100116.08
2019-02-26T06:01:59.130Z,100114.02
2019-02-26T06:02:30.343Z,100113.94
2019-02-26T06:03:03.070Z,100106.52
2019-02-26T06:03:34.509Z,100109.52
2019-02-26T06:04:07.669Z,100105.23
2019-02-26T06:04:41.027Z,100101.81
2019-02-26T06:05:12.331Z,100107.88